Riga, Michigan
Current Conditions -  °F | °C
As of 3:15 AM on Monday 24 Nov 2014 (Local Time) from KDUH Reporting Station
Light Rain Light Rain  
Wind Chill: 57°   Ceiling: 1100
Heat Index: 57°   Visibility: 5mi
Dew Point: 54°   Wind: 14mph
Humidity: 88%   Direction: 200°SSW
Pressure: 29.1"   Gusts: 30mph
Location:  41.81°N, 83.82°W
Report Text: KDUH 240815Z AUTO 20012G26KT 5SM -RA BKN011 BKN015 OVC023 14/12 A2910 RMK AO2
Loading
Personal Weather Stations






























Interactive Weather Map New forecast layout! Learn more

10-Day Weather Forecast

Advertisements
Track Severe Weather on mobile